sensor_id;sensor_type;location;lat;lon;timestamp;P1;durP1;ratioP1;P2;durP2;ratioP2
32491;SDS011;20605;49.742;18.802;2022-12-19T00:01:25;58.30;;;17.05;;
32491;SDS011;20605;49.742;18.802;2022-12-19T00:03:57;56.53;;;17.10;;
32491;SDS011;20605;49.742;18.802;2022-12-19T00:06:27;23.02;;;9.13;;
32491;SDS011;20605;49.742;18.802;2022-12-19T00:08:56;16.73;;;7.08;;
32491;SDS011;20605;49.742;18.802;2022-12-19T00:11:25;12.33;;;6.10;;
32491;SDS011;20605;49.742;18.802;2022-12-19T00:13:53;15.40;;;6.72;;
32491;SDS011;20605;49.742;18.802;2022-12-19T00:16:21;11.33;;;5.75;;
32491;SDS011;20605;49.742;18.802;2022-12-19T00:18:51;14.65;;;7.40;;
32491;SDS011;20605;49.742;18.802;2022-12-19T00:21:20;12.93;;;5.78;;
32491;SDS011;20605;49.742;18.802;2022-12-19T00:23:50;15.75;;;7.05;;
32491;SDS011;20605;49.742;18.802;2022-12-19T00:26:21;15.20;;;6.37;;
32491;SDS011;20605;49.742;18.802;2022-12-19T00:28:52;12.63;;;6.65;;
32491;SDS011;20605;49.742;18.802;2022-12-19T00:31:24;12.47;;;6.50;;
32491;SDS011;20605;49.742;18.802;2022-12-19T00:33:54;16.05;;;6.62;;
32491;SDS011;20605;49.742;18.802;2022-12-19T00:36:22;11.68;;;5.72;;
32491;SDS011;20605;49.742;18.802;2022-12-19T00:38:52;11.00;;;5.45;;
32491;SDS011;20605;49.742;18.802;2022-12-19T00:41:22;14.58;;;6.65;;
32491;SDS011;20605;49.742;18.802;2022-12-19T00:44:06;13.32;;;6.90;;
32491;SDS011;20605;49.742;18.802;2022-12-19T00:46:31;11.35;;;5.65;;
32491;SDS011;20605;49.742;18.802;2022-12-19T00:48:59;11.38;;;5.37;;
32491;SDS011;20605;49.742;18.802;2022-12-19T00:51:30;9.88;;;5.65;;
32491;SDS011;20605;49.742;18.802;2022-12-19T00:54:00;11.30;;;5.75;;
32491;SDS011;20605;49.742;18.802;2022-12-19T00:56:33;9.00;;;4.78;;
32491;SDS011;20605;49.742;18.802;2022-12-19T00:58:58;13.13;;;6.45;;
32491;SDS011;20605;49.742;18.802;2022-12-19T01:01:28;11.33;;;6.72;;
32491;SDS011;20605;49.742;18.802;2022-12-19T01:03:58;12.98;;;6.45;;
32491;SDS011;20605;49.742;18.802;2022-12-19T01:06:27;13.28;;;7.55;;
32491;SDS011;20605;49.742;18.802;2022-12-19T01:08:54;11.55;;;6.12;;
32491;SDS011;20605;49.742;18.802;2022-12-19T01:11:21;16.82;;;8.53;;
32491;SDS011;20605;49.742;18.802;2022-12-19T01:13:50;39.55;;;22.10;;
32491;SDS011;20605;49.742;18.802;2022-12-19T01:16:17;22.20;;;12.60;;
32491;SDS011;20605;49.742;18.802;2022-12-19T01:18:44;26.93;;;13.03;;
32491;SDS011;20605;49.742;18.802;2022-12-19T01:21:10;35.13;;;16.77;;
32491;SDS011;20605;49.742;18.802;2022-12-19T01:23:37;26.48;;;11.60;;
32491;SDS011;20605;49.742;18.802;2022-12-19T01:28:50;39.00;;;20.92;;
32491;SDS011;20605;49.742;18.802;2022-12-19T01:31:17;52.13;;;29.05;;
32491;SDS011;20605;49.742;18.802;2022-12-19T01:33:43;45.63;;;24.57;;
32491;SDS011;20605;49.742;18.802;2022-12-19T01:36:10;26.25;;;14.00;;
32491;SDS011;20605;49.742;18.802;2022-12-19T01:38:37;18.75;;;11.00;;
32491;SDS011;20605;49.742;18.802;2022-12-19T01:41:04;21.30;;;12.23;;
32491;SDS011;20605;49.742;18.802;2022-12-19T01:43:51;16.52;;;10.72;;
32491;SDS011;20605;49.742;18.802;2022-12-19T01:46:25;18.42;;;11.43;;
32491;SDS011;20605;49.742;18.802;2022-12-19T01:51:22;21.07;;;11.63;;
32491;SDS011;20605;49.742;18.802;2022-12-19T01:53:55;15.63;;;8.40;;
32491;SDS011;20605;49.742;18.802;2022-12-19T01:56:30;13.00;;;6.70;;
32491;SDS011;20605;49.742;18.802;2022-12-19T01:59:02;14.95;;;8.80;;
32491;SDS011;20605;49.742;18.802;2022-12-19T02:01:35;8.48;;;5.70;;
32491;SDS011;20605;49.742;18.802;2022-12-19T02:04:04;15.30;;;9.03;;
32491;SDS011;20605;49.742;18.802;2022-12-19T02:06:31;23.02;;;12.28;;
32491;SDS011;20605;49.742;18.802;2022-12-19T02:09:00;12.98;;;6.40;;
32491;SDS011;20605;49.742;18.802;2022-12-19T02:11:27;19.32;;;10.13;;
32491;SDS011;20605;49.742;18.802;2022-12-19T02:13:54;30.57;;;16.70;;
32491;SDS011;20605;49.742;18.802;2022-12-19T02:21:54;13.60;;;8.63;;
32491;SDS011;20605;49.742;18.802;2022-12-19T02:39:16;38.80;;;15.83;;
32491;SDS011;20605;49.742;18.802;2022-12-19T02:41:56;36.73;;;14.00;;
32491;SDS011;20605;49.742;18.802;2022-12-19T02:44:35;24.85;;;12.30;;
32491;SDS011;20605;49.742;18.802;2022-12-19T02:47:07;19.40;;;9.90;;
32491;SDS011;20605;49.742;18.802;2022-12-19T02:49:36;18.98;;;9.45;;
32491;SDS011;20605;49.742;18.802;2022-12-19T02:52:40;21.90;;;10.30;;
32491;SDS011;20605;49.742;18.802;2022-12-19T02:54:39;28.35;;;12.33;;
32491;SDS011;20605;49.742;18.802;2022-12-19T03:00:09;9.15;;;5.03;;
32491;SDS011;20605;49.742;18.802;2022-12-19T03:02:47;6.22;;;3.27;;
32491;SDS011;20605;49.742;18.802;2022-12-19T03:11:18;9.03;;;4.67;;
32491;SDS011;20605;49.742;18.802;2022-12-19T03:13:49;4.80;;;2.85;;
32491;SDS011;20605;49.742;18.802;2022-12-19T03:16:33;5.15;;;3.33;;
32491;SDS011;20605;49.742;18.802;2022-12-19T03:19:01;6.05;;;3.60;;
32491;SDS011;20605;49.742;18.802;2022-12-19T03:21:40;7.20;;;4.25;;
32491;SDS011;20605;49.742;18.802;2022-12-19T03:24:09;8.03;;;4.00;;
32491;SDS011;20605;49.742;18.802;2022-12-19T03:26:43;7.85;;;3.95;;
32491;SDS011;20605;49.742;18.802;2022-12-19T03:29:12;7.83;;;4.15;;
32491;SDS011;20605;49.742;18.802;2022-12-19T03:31:42;8.20;;;4.00;;
32491;SDS011;20605;49.742;18.802;2022-12-19T03:34:17;7.90;;;4.10;;
32491;SDS011;20605;49.742;18.802;2022-12-19T03:36:54;8.58;;;4.45;;
32491;SDS011;20605;49.742;18.802;2022-12-19T03:39:26;8.48;;;4.42;;
32491;SDS011;20605;49.742;18.802;2022-12-19T03:41:55;6.45;;;4.10;;
32491;SDS011;20605;49.742;18.802;2022-12-19T03:44:42;6.17;;;4.20;;
32491;SDS011;20605;49.742;18.802;2022-12-19T03:47:30;6.33;;;3.98;;
32491;SDS011;20605;49.742;18.802;2022-12-19T03:49:59;7.42;;;4.58;;
32491;SDS011;20605;49.742;18.802;2022-12-19T03:52:35;5.25;;;3.87;;
32491;SDS011;20605;49.742;18.802;2022-12-19T03:55:23;5.85;;;3.65;;
32491;SDS011;20605;49.742;18.802;2022-12-19T03:57:56;9.85;;;5.15;;
32491;SDS011;20605;49.742;18.802;2022-12-19T04:00:27;6.05;;;3.42;;
32491;SDS011;20605;49.742;18.802;2022-12-19T04:02:59;8.28;;;4.60;;
32491;SDS011;20605;49.742;18.802;2022-12-19T04:05:28;7.17;;;4.35;;
32491;SDS011;20605;49.742;18.802;2022-12-19T04:07:57;7.83;;;4.30;;
32491;SDS011;20605;49.742;18.802;2022-12-19T04:10:26;7.45;;;4.22;;
32491;SDS011;20605;49.742;18.802;2022-12-19T04:13:02;7.12;;;4.37;;
32491;SDS011;20605;49.742;18.802;2022-12-19T04:15:34;6.83;;;4.22;;
32491;SDS011;20605;49.742;18.802;2022-12-19T04:18:10;9.25;;;4.20;;
32491;SDS011;20605;49.742;18.802;2022-12-19T04:20:40;8.13;;;4.70;;
32491;SDS011;20605;49.742;18.802;2022-12-19T04:23:14;11.83;;;5.42;;
32491;SDS011;20605;49.742;18.802;2022-12-19T04:25:46;8.73;;;4.70;;
32491;SDS011;20605;49.742;18.802;2022-12-19T04:28:17;9.30;;;5.15;;
32491;SDS011;20605;49.742;18.802;2022-12-19T04:30:50;8.15;;;5.62;;
32491;SDS011;20605;49.742;18.802;2022-12-19T04:33:19;9.10;;;5.37;;
32491;SDS011;20605;49.742;18.802;2022-12-19T04:35:46;7.85;;;5.05;;
32491;SDS011;20605;49.742;18.802;2022-12-19T04:38:12;9.10;;;5.55;;
32491;SDS011;20605;49.742;18.802;2022-12-19T04:40:39;10.55;;;5.95;;
32491;SDS011;20605;49.742;18.802;2022-12-19T04:43:06;10.68;;;5.50;;
32491;SDS011;20605;49.742;18.802;2022-12-19T04:45:33;10.08;;;5.45;;
32491;SDS011;20605;49.742;18.802;2022-12-19T04:48:00;10.63;;;6.20;;
32491;SDS011;20605;49.742;18.802;2022-12-19T04:50:27;9.35;;;5.55;;
32491;SDS011;20605;49.742;18.802;2022-12-19T04:52:56;11.65;;;6.08;;
32491;SDS011;20605;49.742;18.802;2022-12-19T04:55:23;12.07;;;6.03;;
32491;SDS011;20605;49.742;18.802;2022-12-19T04:57:50;10.65;;;6.47;;
32491;SDS011;20605;49.742;18.802;2022-12-19T05:00:16;11.05;;;6.05;;
32491;SDS011;20605;49.742;18.802;2022-12-19T05:02:43;11.95;;;6.45;;
32491;SDS011;20605;49.742;18.802;2022-12-19T05:05:10;15.00;;;7.42;;
32491;SDS011;20605;49.742;18.802;2022-12-19T05:07:38;10.45;;;6.47;;
32491;SDS011;20605;49.742;18.802;2022-12-19T05:10:05;12.58;;;6.37;;
32491;SDS011;20605;49.742;18.802;2022-12-19T05:12:33;11.53;;;6.42;;
32491;SDS011;20605;49.742;18.802;2022-12-19T05:15:00;10.78;;;6.08;;
32491;SDS011;20605;49.742;18.802;2022-12-19T05:17:27;12.03;;;6.87;;
32491;SDS011;20605;49.742;18.802;2022-12-19T05:19:53;11.85;;;6.17;;
32491;SDS011;20605;49.742;18.802;2022-12-19T05:22:21;9.45;;;5.75;;
32491;SDS011;20605;49.742;18.802;2022-12-19T05:24:47;12.15;;;7.30;;
32491;SDS011;20605;49.742;18.802;2022-12-19T05:27:14;23.57;;;12.53;;
32491;SDS011;20605;49.742;18.802;2022-12-19T05:29:41;16.90;;;9.25;;
32491;SDS011;20605;49.742;18.802;2022-12-19T05:32:07;15.10;;;8.70;;
32491;SDS011;20605;49.742;18.802;2022-12-19T05:34:34;24.47;;;10.65;;
32491;SDS011;20605;49.742;18.802;2022-12-19T05:37:01;25.62;;;11.55;;
32491;SDS011;20605;49.742;18.802;2022-12-19T05:39:28;22.90;;;10.13;;
32491;SDS011;20605;49.742;18.802;2022-12-19T05:41:55;52.03;;;20.48;;
32491;SDS011;20605;49.742;18.802;2022-12-19T05:44:22;21.85;;;11.88;;
32491;SDS011;20605;49.742;18.802;2022-12-19T05:46:49;29.57;;;16.12;;
32491;SDS011;20605;49.742;18.802;2022-12-19T05:49:15;15.23;;;8.50;;
32491;SDS011;20605;49.742;18.802;2022-12-19T05:51:45;12.78;;;7.90;;
32491;SDS011;20605;49.742;18.802;2022-12-19T05:54:12;12.75;;;7.92;;
32491;SDS011;20605;49.742;18.802;2022-12-19T05:56:39;14.40;;;8.10;;
32491;SDS011;20605;49.742;18.802;2022-12-19T05:59:06;16.15;;;8.28;;
32491;SDS011;20605;49.742;18.802;2022-12-19T06:01:33;16.60;;;7.72;;
32491;SDS011;20605;49.742;18.802;2022-12-19T06:03:59;17.48;;;8.00;;
32491;SDS011;20605;49.742;18.802;2022-12-19T06:06:26;16.73;;;7.87;;
32491;SDS011;20605;49.742;18.802;2022-12-19T06:08:53;29.98;;;12.82;;
32491;SDS011;20605;49.742;18.802;2022-12-19T06:11:22;25.68;;;12.65;;
32491;SDS011;20605;49.742;18.802;2022-12-19T06:13:49;11.78;;;6.90;;
32491;SDS011;20605;49.742;18.802;2022-12-19T06:16:16;15.32;;;8.78;;
32491;SDS011;20605;49.742;18.802;2022-12-19T06:18:46;25.90;;;12.18;;
32491;SDS011;20605;49.742;18.802;2022-12-19T06:21:14;20.72;;;10.53;;
32491;SDS011;20605;49.742;18.802;2022-12-19T06:23:44;22.25;;;11.55;;
32491;SDS011;20605;49.742;18.802;2022-12-19T06:26:13;29.18;;;14.33;;
32491;SDS011;20605;49.742;18.802;2022-12-19T06:28:42;22.95;;;17.17;;
32491;SDS011;20605;49.742;18.802;2022-12-19T06:31:09;17.32;;;11.05;;
32491;SDS011;20605;49.742;18.802;2022-12-19T06:33:38;16.55;;;9.68;;
32491;SDS011;20605;49.742;18.802;2022-12-19T06:36:05;15.72;;;9.53;;
32491;SDS011;20605;49.742;18.802;2022-12-19T06:38:38;19.57;;;10.75;;
32491;SDS011;20605;49.742;18.802;2022-12-19T06:41:05;15.00;;;8.85;;
32491;SDS011;20605;49.742;18.802;2022-12-19T06:43:52;15.90;;;8.28;;
32491;SDS011;20605;49.742;18.802;2022-12-19T06:46:18;13.25;;;6.75;;
32491;SDS011;20605;49.742;18.802;2022-12-19T06:48:45;13.00;;;7.45;;
32491;SDS011;20605;49.742;18.802;2022-12-19T06:51:12;15.88;;;8.03;;
32491;SDS011;20605;49.742;18.802;2022-12-19T06:53:38;101.47;;;44.63;;
32491;SDS011;20605;49.742;18.802;2022-12-19T06:56:05;14.93;;;10.32;;
32491;SDS011;20605;49.742;18.802;2022-12-19T06:58:33;18.35;;;11.33;;
32491;SDS011;20605;49.742;18.802;2022-12-19T07:00:59;26.62;;;19.05;;
32491;SDS011;20605;49.742;18.802;2022-12-19T07:03:28;39.23;;;29.05;;
32491;SDS011;20605;49.742;18.802;2022-12-19T07:05:58;70.17;;;51.18;;
32491;SDS011;20605;49.742;18.802;2022-12-19T07:08:28;28.75;;;19.90;;
32491;SDS011;20605;49.742;18.802;2022-12-19T07:10:55;59.70;;;42.62;;
32491;SDS011;20605;49.742;18.802;2022-12-19T07:13:22;30.48;;;16.23;;
32491;SDS011;20605;49.742;18.802;2022-12-19T07:15:49;29.63;;;17.75;;
32491;SDS011;20605;49.742;18.802;2022-12-19T07:18:18;16.40;;;9.78;;
32491;SDS011;20605;49.742;18.802;2022-12-19T07:20:45;18.95;;;11.73;;
32491;SDS011;20605;49.742;18.802;2022-12-19T07:23:13;15.80;;;10.15;;
32491;SDS011;20605;49.742;18.802;2022-12-19T07:25:43;15.28;;;8.75;;
32491;SDS011;20605;49.742;18.802;2022-12-19T07:28:09;15.05;;;8.83;;
32491;SDS011;20605;49.742;18.802;2022-12-19T07:30:36;42.48;;;22.95;;
32491;SDS011;20605;49.742;18.802;2022-12-19T07:33:03;31.57;;;19.37;;
32491;SDS011;20605;49.742;18.802;2022-12-19T07:35:30;17.52;;;11.00;;
32491;SDS011;20605;49.742;18.802;2022-12-19T07:38:03;23.32;;;16.57;;
32491;SDS011;20605;49.742;18.802;2022-12-19T07:40:32;21.35;;;14.45;;
32491;SDS011;20605;49.742;18.802;2022-12-19T07:43:00;15.45;;;11.65;;
32491;SDS011;20605;49.742;18.802;2022-12-19T07:45:29;24.25;;;18.23;;
32491;SDS011;20605;49.742;18.802;2022-12-19T07:47:58;34.90;;;25.37;;
32491;SDS011;20605;49.742;18.802;2022-12-19T07:50:27;12.40;;;10.30;;
32491;SDS011;20605;49.742;18.802;2022-12-19T07:52:54;25.20;;;21.93;;
32491;SDS011;20605;49.742;18.802;2022-12-19T07:55:22;11.43;;;9.65;;
32491;SDS011;20605;49.742;18.802;2022-12-19T07:57:50;10.25;;;9.03;;
32491;SDS011;20605;49.742;18.802;2022-12-19T08:00:18;8.88;;;7.83;;
32491;SDS011;20605;49.742;18.802;2022-12-19T08:02:46;9.28;;;8.28;;
32491;SDS011;20605;49.742;18.802;2022-12-19T08:05:13;9.48;;;8.35;;
32491;SDS011;20605;49.742;18.802;2022-12-19T08:07:40;8.30;;;7.50;;
32491;SDS011;20605;49.742;18.802;2022-12-19T08:10:07;28.30;;;23.25;;
32491;SDS011;20605;49.742;18.802;2022-12-19T08:12:36;17.60;;;15.80;;
32491;SDS011;20605;49.742;18.802;2022-12-19T08:15:03;9.13;;;8.23;;
32491;SDS011;20605;49.742;18.802;2022-12-19T08:17:31;17.87;;;13.88;;
32491;SDS011;20605;49.742;18.802;2022-12-19T08:19:57;8.80;;;7.95;;
32491;SDS011;20605;49.742;18.802;2022-12-19T08:22:24;7.87;;;7.10;;
32491;SDS011;20605;49.742;18.802;2022-12-19T08:24:52;20.43;;;14.47;;
32491;SDS011;20605;49.742;18.802;2022-12-19T08:27:18;33.70;;;23.32;;
32491;SDS011;20605;49.742;18.802;2022-12-19T08:29:45;16.27;;;13.90;;
32491;SDS011;20605;49.742;18.802;2022-12-19T08:32:13;10.23;;;9.25;;
32491;SDS011;20605;49.742;18.802;2022-12-19T08:34:40;10.10;;;8.70;;
32491;SDS011;20605;49.742;18.802;2022-12-19T08:37:07;7.95;;;7.25;;
32491;SDS011;20605;49.742;18.802;2022-12-19T08:39:37;9.18;;;8.28;;
32491;SDS011;20605;49.742;18.802;2022-12-19T08:42:04;9.98;;;9.08;;
32491;SDS011;20605;49.742;18.802;2022-12-19T08:44:30;11.57;;;10.40;;
32491;SDS011;20605;49.742;18.802;2022-12-19T08:46:58;15.78;;;12.78;;
32491;SDS011;20605;49.742;18.802;2022-12-19T08:49:25;10.63;;;8.58;;
32491;SDS011;20605;49.742;18.802;2022-12-19T08:51:52;10.05;;;9.05;;
32491;SDS011;20605;49.742;18.802;2022-12-19T08:54:18;10.95;;;9.85;;
32491;SDS011;20605;49.742;18.802;2022-12-19T08:56:45;9.45;;;8.43;;
32491;SDS011;20605;49.742;18.802;2022-12-19T08:59:11;12.13;;;10.82;;
32491;SDS011;20605;49.742;18.802;2022-12-19T09:01:40;34.33;;;26.93;;
32491;SDS011;20605;49.742;18.802;2022-12-19T09:04:06;51.60;;;34.60;;
32491;SDS011;20605;49.742;18.802;2022-12-19T09:06:33;32.95;;;25.55;;
32491;SDS011;20605;49.742;18.802;2022-12-19T09:09:00;40.17;;;28.60;;
32491;SDS011;20605;49.742;18.802;2022-12-19T09:11:28;54.42;;;39.50;;
32491;SDS011;20605;49.742;18.802;2022-12-19T09:13:56;65.60;;;44.30;;
32491;SDS011;20605;49.742;18.802;2022-12-19T09:16:24;41.28;;;29.82;;
32491;SDS011;20605;49.742;18.802;2022-12-19T09:18:53;32.93;;;28.75;;
32491;SDS011;20605;49.742;18.802;2022-12-19T09:21:23;37.95;;;32.55;;
32491;SDS011;20605;49.742;18.802;2022-12-19T09:23:54;41.25;;;33.13;;
32491;SDS011;20605;49.742;18.802;2022-12-19T09:26:23;69.55;;;50.63;;
32491;SDS011;20605;49.742;18.802;2022-12-19T09:28:52;60.10;;;45.23;;
32491;SDS011;20605;49.742;18.802;2022-12-19T09:31:20;49.10;;;35.08;;
32491;SDS011;20605;49.742;18.802;2022-12-19T09:33:49;92.67;;;65.37;;
32491;SDS011;20605;49.742;18.802;2022-12-19T09:36:21;75.57;;;50.80;;
32491;SDS011;20605;49.742;18.802;2022-12-19T09:38:51;41.63;;;36.42;;
32491;SDS011;20605;49.742;18.802;2022-12-19T09:44:27;37.70;;;30.85;;
32491;SDS011;20605;49.742;18.802;2022-12-19T09:47:14;36.58;;;29.00;;
32491;SDS011;20605;49.742;18.802;2022-12-19T09:52:20;18.77;;;15.65;;
32491;SDS011;20605;49.742;18.802;2022-12-19T09:55:05;24.92;;;20.65;;
32491;SDS011;20605;49.742;18.802;2022-12-19T09:57:46;15.32;;;12.95;;
32491;SDS011;20605;49.742;18.802;2022-12-19T10:00:21;11.53;;;10.20;;
32491;SDS011;20605;49.742;18.802;2022-12-19T10:02:52;10.82;;;9.55;;
32491;SDS011;20605;49.742;18.802;2022-12-19T10:08:17;14.85;;;11.28;;
32491;SDS011;20605;49.742;18.802;2022-12-19T10:11:06;14.10;;;9.83;;
32491;SDS011;20605;49.742;18.802;2022-12-19T10:19:42;15.85;;;12.20;;
32491;SDS011;20605;49.742;18.802;2022-12-19T10:23:04;11.50;;;8.48;;
32491;SDS011;20605;49.742;18.802;2022-12-19T10:31:02;19.85;;;12.13;;
32491;SDS011;20605;49.742;18.802;2022-12-19T10:39:15;13.68;;;9.23;;
32491;SDS011;20605;49.742;18.802;2022-12-19T10:41:55;12.30;;;8.33;;
32491;SDS011;20605;49.742;18.802;2022-12-19T10:44:26;15.28;;;10.28;;
32491;SDS011;20605;49.742;18.802;2022-12-19T10:46:55;14.15;;;9.53;;
32491;SDS011;20605;49.742;18.802;2022-12-19T10:49:27;13.30;;;9.20;;
32491;SDS011;20605;49.742;18.802;2022-12-19T11:02:42;17.40;;;10.63;;
32491;SDS011;20605;49.742;18.802;2022-12-19T11:05:23;14.60;;;8.93;;
32491;SDS011;20605;49.742;18.802;2022-12-19T11:08:01;16.02;;;9.20;;
32491;SDS011;20605;49.742;18.802;2022-12-19T11:10:39;15.65;;;9.15;;
32491;SDS011;20605;49.742;18.802;2022-12-19T11:15:57;15.50;;;9.78;;
32491;SDS011;20605;49.742;18.802;2022-12-19T11:18:35;15.95;;;10.40;;
32491;SDS011;20605;49.742;18.802;2022-12-19T11:21:27;16.77;;;9.95;;
32491;SDS011;20605;49.742;18.802;2022-12-19T11:29:16;19.35;;;11.05;;
32491;SDS011;20605;49.742;18.802;2022-12-19T11:31:55;16.75;;;10.03;;
32491;SDS011;20605;49.742;18.802;2022-12-19T11:34:26;20.43;;;11.83;;
32491;SDS011;20605;49.742;18.802;2022-12-19T11:39:55;28.87;;;15.48;;
32491;SDS011;20605;49.742;18.802;2022-12-19T11:51:15;18.73;;;10.72;;
32491;SDS011;20605;49.742;18.802;2022-12-19T11:57:00;18.25;;;11.18;;
32491;SDS011;20605;49.742;18.802;2022-12-19T11:59:31;18.60;;;11.43;;
32491;SDS011;20605;49.742;18.802;2022-12-19T12:02:22;82.93;;;28.37;;
32491;SDS011;20605;49.742;18.802;2022-12-19T12:39:35;39.42;;;22.93;;
32491;SDS011;20605;49.742;18.802;2022-12-19T12:45:21;53.45;;;26.20;;
32491;SDS011;20605;49.742;18.802;2022-12-19T12:47:51;62.67;;;29.75;;
32491;SDS011;20605;49.742;18.802;2022-12-19T12:50:20;87.12;;;39.48;;
32491;SDS011;20605;49.742;18.802;2022-12-19T12:52:55;55.43;;;26.95;;
32491;SDS011;20605;49.742;18.802;2022-12-19T12:55:26;44.30;;;21.85;;
32491;SDS011;20605;49.742;18.802;2022-12-19T12:57:56;44.42;;;22.77;;
32491;SDS011;20605;49.742;18.802;2022-12-19T13:00:34;40.05;;;21.80;;
32491;SDS011;20605;49.742;18.802;2022-12-19T13:05:51;30.90;;;16.07;;
32491;SDS011;20605;49.742;18.802;2022-12-19T13:11:13;28.17;;;14.87;;
32491;SDS011;20605;49.742;18.802;2022-12-19T13:14:07;27.70;;;14.73;;
32491;SDS011;20605;49.742;18.802;2022-12-19T13:19:35;39.95;;;16.85;;
32491;SDS011;20605;49.742;18.802;2022-12-19T13:24:58;42.30;;;16.48;;
32491;SDS011;20605;49.742;18.802;2022-12-19T13:27:33;48.05;;;18.40;;
32491;SDS011;20605;49.742;18.802;2022-12-19T13:41:00;27.25;;;13.90;;
32491;SDS011;20605;49.742;18.802;2022-12-19T13:43:35;47.90;;;16.55;;
32491;SDS011;20605;49.742;18.802;2022-12-19T13:46:20;24.92;;;11.65;;
32491;SDS011;20605;49.742;18.802;2022-12-19T13:49:21;39.45;;;15.15;;
32491;SDS011;20605;49.742;18.802;2022-12-19T13:51:52;30.57;;;13.62;;
32491;SDS011;20605;49.742;18.802;2022-12-19T13:54:26;24.15;;;11.65;;
32491;SDS011;20605;49.742;18.802;2022-12-19T13:59:25;25.17;;;12.18;;
32491;SDS011;20605;49.742;18.802;2022-12-19T14:01:56;25.55;;;11.97;;
32491;SDS011;20605;49.742;18.802;2022-12-19T14:04:33;28.52;;;12.40;;
32491;SDS011;20605;49.742;18.802;2022-12-19T14:07:01;22.48;;;12.13;;
32491;SDS011;20605;49.742;18.802;2022-12-19T14:09:37;22.10;;;11.57;;
32491;SDS011;20605;49.742;18.802;2022-12-19T14:12:14;156.43;;;73.37;;
32491;SDS011;20605;49.742;18.802;2022-12-19T14:14:49;128.30;;;60.55;;
32491;SDS011;20605;49.742;18.802;2022-12-19T14:17:34;79.22;;;43.10;;
32491;SDS011;20605;49.742;18.802;2022-12-19T14:20:01;59.88;;;29.87;;
32491;SDS011;20605;49.742;18.802;2022-12-19T14:22:45;58.95;;;26.35;;
32491;SDS011;20605;49.742;18.802;2022-12-19T14:25:12;36.77;;;17.45;;
32491;SDS011;20605;49.742;18.802;2022-12-19T14:27:40;29.77;;;16.48;;
32491;SDS011;20605;49.742;18.802;2022-12-19T14:30:22;32.58;;;15.93;;
32491;SDS011;20605;49.742;18.802;2022-12-19T14:32:55;42.38;;;19.52;;
32491;SDS011;20605;49.742;18.802;2022-12-19T14:35:28;56.85;;;29.00;;
32491;SDS011;20605;49.742;18.802;2022-12-19T14:38:02;53.55;;;27.50;;
32491;SDS011;20605;49.742;18.802;2022-12-19T14:40:32;87.35;;;44.88;;
32491;SDS011;20605;49.742;18.802;2022-12-19T14:43:14;58.92;;;26.05;;
32491;SDS011;20605;49.742;18.802;2022-12-19T14:48:58;116.33;;;51.55;;
32491;SDS011;20605;49.742;18.802;2022-12-19T14:51:27;32.28;;;15.75;;
32491;SDS011;20605;49.742;18.802;2022-12-19T15:02:24;23.42;;;12.47;;
32491;SDS011;20605;49.742;18.802;2022-12-19T15:05:01;30.20;;;13.93;;
32491;SDS011;20605;49.742;18.802;2022-12-19T15:07:33;28.60;;;14.60;;
32491;SDS011;20605;49.742;18.802;2022-12-19T15:10:02;22.35;;;13.03;;
32491;SDS011;20605;49.742;18.802;2022-12-19T15:15:50;20.37;;;11.15;;
32491;SDS011;20605;49.742;18.802;2022-12-19T15:21:05;18.02;;;10.93;;
32491;SDS011;20605;49.742;18.802;2022-12-19T15:23:37;17.73;;;9.65;;
32491;SDS011;20605;49.742;18.802;2022-12-19T15:26:05;20.43;;;11.57;;
32491;SDS011;20605;49.742;18.802;2022-12-19T15:28:39;25.25;;;13.05;;
32491;SDS011;20605;49.742;18.802;2022-12-19T15:31:39;28.15;;;14.13;;
32491;SDS011;20605;49.742;18.802;2022-12-19T15:34:19;22.35;;;11.05;;
32491;SDS011;20605;49.742;18.802;2022-12-19T15:36:51;18.35;;;11.33;;
32491;SDS011;20605;49.742;18.802;2022-12-19T15:39:20;18.25;;;10.48;;
32491;SDS011;20605;49.742;18.802;2022-12-19T15:41:47;19.10;;;10.68;;
32491;SDS011;20605;49.742;18.802;2022-12-19T15:44:30;19.73;;;10.30;;
32491;SDS011;20605;49.742;18.802;2022-12-19T15:47:04;16.80;;;9.30;;
32491;SDS011;20605;49.742;18.802;2022-12-19T15:49:34;16.00;;;9.20;;
32491;SDS011;20605;49.742;18.802;2022-12-19T15:52:01;25.75;;;14.03;;
32491;SDS011;20605;49.742;18.802;2022-12-19T15:54:27;19.82;;;10.80;;
32491;SDS011;20605;49.742;18.802;2022-12-19T15:56:54;15.38;;;9.63;;
32491;SDS011;20605;49.742;18.802;2022-12-19T16:01:54;16.93;;;9.00;;
32491;SDS011;20605;49.742;18.802;2022-12-19T16:04:23;15.30;;;9.28;;
32491;SDS011;20605;49.742;18.802;2022-12-19T16:06:51;20.35;;;11.35;;
32491;SDS011;20605;49.742;18.802;2022-12-19T16:09:19;15.55;;;8.48;;
32491;SDS011;20605;49.742;18.802;2022-12-19T16:11:51;13.53;;;7.08;;
32491;SDS011;20605;49.742;18.802;2022-12-19T16:14:26;14.25;;;8.55;;
32491;SDS011;20605;49.742;18.802;2022-12-19T16:16:53;17.52;;;9.05;;
32491;SDS011;20605;49.742;18.802;2022-12-19T16:19:25;14.25;;;8.55;;
32491;SDS011;20605;49.742;18.802;2022-12-19T16:21:54;10.08;;;6.50;;
32491;SDS011;20605;49.742;18.802;2022-12-19T16:24:23;10.30;;;5.78;;
32491;SDS011;20605;49.742;18.802;2022-12-19T16:26:55;10.78;;;6.90;;
32491;SDS011;20605;49.742;18.802;2022-12-19T16:29:24;20.02;;;11.20;;
32491;SDS011;20605;49.742;18.802;2022-12-19T16:31:54;14.00;;;7.45;;
32491;SDS011;20605;49.742;18.802;2022-12-19T16:34:21;28.32;;;17.80;;
32491;SDS011;20605;49.742;18.802;2022-12-19T16:36:49;13.50;;;7.42;;
32491;SDS011;20605;49.742;18.802;2022-12-19T16:39:16;45.73;;;25.48;;
32491;SDS011;20605;49.742;18.802;2022-12-19T16:41:43;11.12;;;7.03;;
32491;SDS011;20605;49.742;18.802;2022-12-19T16:44:17;13.40;;;8.48;;
32491;SDS011;20605;49.742;18.802;2022-12-19T16:46:47;27.07;;;11.50;;
32491;SDS011;20605;49.742;18.802;2022-12-19T16:49:19;64.80;;;20.68;;
32491;SDS011;20605;49.742;18.802;2022-12-19T16:51:50;22.42;;;10.72;;
32491;SDS011;20605;49.742;18.802;2022-12-19T16:54:16;61.98;;;23.10;;
32491;SDS011;20605;49.742;18.802;2022-12-19T16:56:51;40.38;;;16.23;;
32491;SDS011;20605;49.742;18.802;2022-12-19T16:59:19;18.87;;;8.33;;
32491;SDS011;20605;49.742;18.802;2022-12-19T17:01:53;43.78;;;15.23;;
32491;SDS011;20605;49.742;18.802;2022-12-19T17:04:21;43.30;;;16.00;;
32491;SDS011;20605;49.742;18.802;2022-12-19T17:06:50;67.27;;;22.82;;
32491;SDS011;20605;49.742;18.802;2022-12-19T17:09:19;88.30;;;27.45;;
32491;SDS011;20605;49.742;18.802;2022-12-19T17:11:53;75.25;;;24.00;;
32491;SDS011;20605;49.742;18.802;2022-12-19T17:14:24;28.67;;;16.20;;
32491;SDS011;20605;49.742;18.802;2022-12-19T17:16:54;49.73;;;17.45;;
32491;SDS011;20605;49.742;18.802;2022-12-19T17:19:23;31.25;;;12.13;;
32491;SDS011;20605;49.742;18.802;2022-12-19T17:21:54;35.83;;;18.35;;
32491;SDS011;20605;49.742;18.802;2022-12-19T17:24:21;24.30;;;12.18;;
32491;SDS011;20605;49.742;18.802;2022-12-19T17:26:48;17.87;;;9.43;;
32491;SDS011;20605;49.742;18.802;2022-12-19T17:29:15;34.10;;;13.08;;
32491;SDS011;20605;49.742;18.802;2022-12-19T17:31:41;27.60;;;13.10;;
32491;SDS011;20605;49.742;18.802;2022-12-19T17:34:14;61.92;;;22.82;;